Time;durP1;ratioP1;P1;durP2;ratioP2;P2;SDS_P1;SDS_P2;PMS_P1;PMS_P2;Temp;Humidity;BMP_temperature;BMP_pressure;BME280_temperature;BME280_humidity;BME280_pressure;Samples;Min_cycle;Max_cycle;Signal;HPM_P1;HPM_P2
2021/12/11 00:01:16;;;;;;;28.27;26.97;;;;;;;;;;5094936;28;20249;-73
2021/12/11 00:03:43;;;;;;;25.30;24.20;;;;;;;;;;5094965;28;20217;-73
2021/12/11 00:06:13;;;;;;;25.53;24.43;;;;;;;;;;5094865;28;20221;-75
2021/12/11 00:08:41;;;;;;;24.67;23.57;;;;;;;;;;5094530;28;20660;-73
2021/12/11 00:11:10;;;;;;;21.23;20.33;;;;;;;;;;5094767;28;20229;-73
2021/12/11 00:13:40;;;;;;;20.33;19.53;;;;;;;;;;5094371;28;20276;-74
2021/12/11 00:16:08;;;;;;;19.33;18.63;;;;;;;;;;5094511;28;20193;-74
2021/12/11 00:18:36;;;;;;;19.17;18.47;;;;;;;;;;5094143;28;20711;-73
2021/12/11 00:21:05;;;;;;;18.37;17.67;;;;;;;;;;5094477;28;20256;-73
2021/12/11 00:23:37;;;;;;;18.30;17.60;;;;;;;;;;5094802;28;20280;-73
2021/12/11 00:26:06;;;;;;;18.00;17.40;;;;;;;;;;5094461;28;20190;-73
2021/12/11 00:28:33;;;;;;;18.60;17.90;;;;;;;;;;5094452;28;20229;-74
2021/12/11 00:31:00;;;;;;;18.97;18.27;;;;;;;;;;5094139;28;20226;-73
2021/12/11 00:33:28;;;;;;;19.73;18.97;;;;;;;;;;5094555;28;20198;-74
2021/12/11 00:35:56;;;;;;;22.57;21.57;;;;;;;;;;5094305;28;20277;-74
2021/12/11 00:38:25;;;;;;;24.50;23.30;;;;;;;;;;5093892;28;20707;-74
2021/12/11 00:40:52;;;;;;;25.63;24.53;;;;;;;;;;5093860;28;20261;-74
2021/12/11 00:43:21;;;;;;;25.17;24.07;;;;;;;;;;5094185;28;20194;-74
2021/12/11 00:45:49;;;;;;;24.77;23.67;;;;;;;;;;5093842;28;20200;-74
2021/12/11 00:48:17;;;;;;;25.03;23.90;;;;;;;;;;5093976;28;20201;-74
2021/12/11 00:50:45;;;;;;;24.50;23.40;;;;;;;;;;5093666;28;20669;-75
2021/12/11 00:53:15;;;;;;;25.77;24.57;;;;;;;;;;5094179;28;20189;-75
2021/12/11 00:55:43;;;;;;;24.87;23.77;;;;;;;;;;5093623;28;20637;-75
2021/12/11 00:58:11;;;;;;;22.60;21.60;;;;;;;;;;5093626;28;20667;-74
2021/12/11 01:00:42;;;;;;;22.00;21.00;;;;;;;;;;5093746;28;20222;-74
2021/12/11 01:03:10;;;;;;;21.40;20.50;;;;;;;;;;5093862;28;20265;-74
2021/12/11 01:05:38;;;;;;;23.10;22.10;;;;;;;;;;5093495;28;20229;-74
2021/12/11 01:08:19;;;;;;;23.77;22.67;;;;;;;;;;5093687;28;20280;-76
2021/12/11 01:10:46;;;;;;;23.47;22.37;;;;;;;;;;5093302;28;20190;-75
2021/12/11 01:13:17;;;;;;;24.47;23.37;;;;;;;;;;5093252;28;20193;-74
2021/12/11 01:15:46;;;;;;;23.87;22.77;;;;;;;;;;5093280;28;20186;-74
2021/12/11 01:18:23;;;;;;;24.10;23.00;;;;;;;;;;5093227;28;20631;-74
2021/12/11 01:20:56;;;;;;;23.17;22.17;;;;;;;;;;5093083;28;20301;-73
2021/12/11 01:23:35;;;;;;;23.33;22.23;;;;;;;;;;5093140;28;20235;-74
2021/12/11 01:26:02;;;;;;;23.60;21.90;;;;;;;;;;5093276;28;20623;-74
2021/12/11 01:28:29;;;;;;;21.60;20.70;;;;;;;;;;5093220;28;20190;-74
2021/12/11 01:30:58;;;;;;;21.63;20.70;;;;;;;;;;5092204;28;20714;-73
2021/12/11 01:33:25;;;;;;;24.43;23.33;;;;;;;;;;5093248;28;20575;-74
2021/12/11 01:35:52;;;;;;;24.20;23.00;;;;;;;;;;5092901;28;20241;-75
2021/12/11 01:38:20;;;;;;;26.90;25.70;;;;;;;;;;5093898;28;20338;-75
2021/12/11 01:40:50;;;;;;;26.87;25.63;;;;;;;;;;5093029;28;20227;-74
2021/12/11 01:43:21;;;;;;;24.37;23.27;;;;;;;;;;5093221;28;20281;-74
2021/12/11 01:45:49;;;;;;;20.20;19.30;;;;;;;;;;5093087;28;20181;-74
2021/12/11 01:48:16;;;;;;;19.60;18.80;;;;;;;;;;5092602;28;20228;-75
2021/12/11 01:50:45;;;;;;;19.20;18.50;;;;;;;;;;5092958;28;20229;-75
2021/12/11 01:53:15;;;;;;;17.67;17.07;;;;;;;;;;5092553;28;20284;-75
2021/12/11 01:55:45;;;;;;;15.90;15.40;;;;;;;;;;5092832;28;20724;-73
2021/12/11 01:58:15;;;;;;;17.47;16.83;;;;;;;;;;5092485;28;20256;-75
2021/12/11 02:00:43;;;;;;;16.30;15.70;;;;;;;;;;5092316;28;20706;-74
2021/12/11 02:03:11;;;;;;;15.00;14.50;;;;;;;;;;5092460;28;20216;-75
2021/12/11 02:05:39;;;;;;;16.30;15.70;;;;;;;;;;5092660;28;20194;-75
2021/12/11 02:08:07;;;;;;;17.40;16.57;;;;;;;;;;5092714;28;20193;-75
2021/12/11 02:10:38;;;;;;;15.13;14.63;;;;;;;;;;5092280;28;20197;-75
2021/12/11 02:13:06;;;;;;;15.90;15.40;;;;;;;;;;5092588;28;20186;-73
2021/12/11 02:15:38;;;;;;;16.23;15.70;;;;;;;;;;5092563;28;20285;-75
2021/12/11 02:18:10;;;;;;;18.77;17.87;;;;;;;;;;5092582;28;20281;-74
2021/12/11 02:20:38;;;;;;;17.93;17.23;;;;;;;;;;5092167;28;20768;-74
2021/12/11 02:23:07;;;;;;;19.63;18.40;;;;;;;;;;5092366;28;20197;-73
2021/12/11 02:25:36;;;;;;;16.87;16.27;;;;;;;;;;5092433;28;20628;-74
2021/12/11 02:28:05;;;;;;;18.67;17.97;;;;;;;;;;5092063;28;20682;-76
2021/12/11 02:30:33;;;;;;;17.83;17.23;;;;;;;;;;5092184;28;20233;-74
2021/12/11 02:33:03;;;;;;;17.67;16.93;;;;;;;;;;5091985;28;20654;-76
2021/12/11 02:35:33;;;;;;;18.37;17.67;;;;;;;;;;5092061;28;20204;-74
2021/12/11 02:38:04;;;;;;;20.20;19.40;;;;;;;;;;5092078;28;20319;-74
2021/12/11 02:40:34;;;;;;;20.17;19.37;;;;;;;;;;5092026;28;20186;-74
2021/12/11 02:43:06;;;;;;;21.33;20.17;;;;;;;;;;5095417;28;20193;-74
2021/12/11 02:45:37;;;;;;;23.50;21.87;;;;;;;;;;5096506;28;20251;-73
2021/12/11 02:48:06;;;;;;;23.13;22.10;;;;;;;;;;5096144;28;20232;-73
2021/12/11 02:50:35;;;;;;;23.30;22.30;;;;;;;;;;5096314;28;20201;-73
2021/12/11 02:53:04;;;;;;;24.30;23.20;;;;;;;;;;5096333;28;20652;-73
2021/12/11 02:55:33;;;;;;;23.20;22.20;;;;;;;;;;5096439;28;20232;-73
2021/12/11 02:58:04;;;;;;;23.87;22.70;;;;;;;;;;5096178;28;20251;-74
2021/12/11 03:00:33;;;;;;;23.60;22.53;;;;;;;;;;5096064;28;20194;-73
2021/12/11 03:03:04;;;;;;;25.40;24.20;;;;;;;;;;5096031;28;20225;-72
2021/12/11 03:05:38;;;;;;;24.23;23.13;;;;;;;;;;5095760;28;20190;-73
2021/12/11 03:08:06;;;;;;;25.40;24.20;;;;;;;;;;5096064;28;20268;-73
2021/12/11 03:10:33;;;;;;;26.70;25.50;;;;;;;;;;5095976;28;20198;-73
2021/12/11 03:13:00;;;;;;;24.17;23.00;;;;;;;;;;5095940;28;20201;-72
2021/12/11 03:15:28;;;;;;;24.40;23.30;;;;;;;;;;5095589;28;20194;-73
2021/12/11 03:17:55;;;;;;;23.30;22.30;;;;;;;;;;5095782;28;20221;-73
2021/12/11 03:20:23;;;;;;;22.83;21.90;;;;;;;;;;5096055;28;20206;-73
2021/12/11 03:22:50;;;;;;;22.60;21.50;;;;;;;;;;5095337;28;20225;-75
2021/12/11 03:25:21;;;;;;;22.53;21.47;;;;;;;;;;5095421;28;20248;-75
2021/12/11 03:27:49;;;;;;;24.67;23.57;;;;;;;;;;5095402;28;20194;-74
2021/12/11 03:30:20;;;;;;;21.53;20.63;;;;;;;;;;5095395;28;20226;-74
2021/12/11 03:32:49;;;;;;;17.87;17.17;;;;;;;;;;5095269;28;20235;-72
2021/12/11 03:35:16;;;;;;;22.97;21.97;;;;;;;;;;5095166;28;20288;-73
2021/12/11 03:37:42;;;;;;;21.73;20.80;;;;;;;;;;5095467;28;20634;-74
2021/12/11 03:40:09;;;;;;;17.87;17.17;;;;;;;;;;5095054;28;20288;-76
2021/12/11 03:42:39;;;;;;;19.63;18.93;;;;;;;;;;5095219;28;20243;-73
2021/12/11 03:45:09;;;;;;;17.57;16.80;;;;;;;;;;5095297;28;20190;-74
2021/12/11 03:47:39;;;;;;;18.77;18.07;;;;;;;;;;5095533;28;20190;-73
2021/12/11 03:50:11;;;;;;;21.47;20.47;;;;;;;;;;5094927;28;20221;-74
2021/12/11 03:52:38;;;;;;;19.70;18.90;;;;;;;;;;5094311;28;20190;-73
2021/12/11 03:55:05;;;;;;;24.20;23.20;;;;;;;;;;5094827;28;20638;-73
2021/12/11 03:57:32;;;;;;;25.53;24.33;;;;;;;;;;5094744;28;20280;-74
2021/12/11 03:59:59;;;;;;;22.90;21.90;;;;;;;;;;5095042;28;20247;-73
2021/12/11 04:02:30;;;;;;;20.53;19.63;;;;;;;;;;5094885;28;20230;-75
2021/12/11 04:05:00;;;;;;;24.00;22.90;;;;;;;;;;5095040;28;20304;-72
2021/12/11 04:07:29;;;;;;;22.83;21.83;;;;;;;;;;5094563;28;20236;-73
2021/12/11 04:09:56;;;;;;;25.33;24.13;;;;;;;;;;5094944;28;20198;-73
2021/12/11 04:12:24;;;;;;;22.60;21.53;;;;;;;;;;5094778;28;20284;-73
2021/12/11 04:14:52;;;;;;;23.93;22.93;;;;;;;;;;5094463;28;20255;-73
2021/12/11 04:17:22;;;;;;;22.67;21.67;;;;;;;;;;5094683;28;20221;-74
2021/12/11 04:19:49;;;;;;;23.00;22.00;;;;;;;;;;5094333;28;20189;-73
2021/12/11 04:22:16;;;;;;;22.73;21.73;;;;;;;;;;5094533;28;20312;-73
2021/12/11 04:24:45;;;;;;;24.97;23.77;;;;;;;;;;5094241;28;20284;-72
2021/12/11 04:27:13;;;;;;;20.83;20.00;;;;;;;;;;5094511;28;20226;-73
2021/12/11 04:29:40;;;;;;;20.50;19.60;;;;;;;;;;5094215;28;20233;-73
2021/12/11 04:32:08;;;;;;;18.40;17.70;;;;;;;;;;5094127;28;20243;-74
2021/12/11 04:34:35;;;;;;;20.53;19.33;;;;;;;;;;5094421;28;20194;-74
2021/12/11 04:37:10;;;;;;;20.37;19.40;;;;;;;;;;5094007;28;20190;-73
2021/12/11 04:39:38;;;;;;;19.90;19.00;;;;;;;;;;5094268;28;20189;-74
2021/12/11 04:42:15;;;;;;;17.13;16.33;;;;;;;;;;5094342;28;20325;-73
2021/12/11 04:44:44;;;;;;;16.70;16.00;;;;;;;;;;5093880;28;20190;-74
2021/12/11 04:47:16;;;;;;;15.80;15.00;;;;;;;;;;5094596;28;20198;-74
2021/12/11 04:49:49;;;;;;;14.73;14.13;;;;;;;;;;5093823;28;20190;-74
2021/12/11 04:52:18;;;;;;;15.43;14.83;;;;;;;;;;5093735;28;20251;-74
2021/12/11 04:54:58;;;;;;;15.10;14.60;;;;;;;;;;5093697;28;20323;-75
2021/12/11 05:00:19;;;;;;;16.10;15.50;;;;;;;;;;5080041;28;20281;-76
2021/12/11 05:05:48;;;;;;;14.47;13.80;;;;;;;;;;5093135;28;20235;-77
2021/12/11 05:08:48;;;;;;;14.27;13.77;;;;;;;;;;5093492;28;20243;-75
2021/12/11 05:11:15;;;;;;;13.23;12.73;;;;;;;;;;5093104;28;20194;-74
2021/12/11 05:13:43;;;;;;;14.10;13.70;;;;;;;;;;5093258;28;20197;-75
2021/12/11 05:16:12;;;;;;;14.13;13.63;;;;;;;;;;5093514;28;20569;-75
2021/12/11 05:18:40;;;;;;;14.27;13.77;;;;;;;;;;5093153;28;20280;-75
2021/12/11 05:21:08;;;;;;;14.47;13.97;;;;;;;;;;5093061;28;20739;-76
2021/12/11 05:23:35;;;;;;;13.83;13.33;;;;;;;;;;5093203;28;20286;-76
2021/12/11 05:26:02;;;;;;;13.73;13.23;;;;;;;;;;5093359;28;20194;-77
2021/12/11 05:28:28;;;;;;;14.17;13.63;;;;;;;;;;5093342;28;20255;-76
2021/12/11 05:30:59;;;;;;;14.07;13.57;;;;;;;;;;5092873;28;20685;-77
2021/12/11 05:33:26;;;;;;;14.63;14.00;;;;;;;;;;5092951;28;20562;-75
2021/12/11 05:35:53;;;;;;;13.63;13.13;;;;;;;;;;5092906;28;20194;-79
2021/12/11 05:38:21;;;;;;;14.63;14.13;;;;;;;;;;5092816;28;20280;-77
2021/12/11 05:40:49;;;;;;;14.43;13.83;;;;;;;;;;5093127;28;20241;-77
2021/12/11 05:43:16;;;;;;;13.43;12.83;;;;;;;;;;5093272;28;20226;-76
2021/12/11 05:45:43;;;;;;;13.93;13.43;;;;;;;;;;5092730;28;20732;-78
2021/12/11 05:48:12;;;;;;;13.40;12.90;;;;;;;;;;5092959;28;20647;-77
2021/12/11 05:50:40;;;;;;;14.77;14.17;;;;;;;;;;5093002;28;20225;-76
2021/12/11 05:53:07;;;;;;;13.40;12.90;;;;;;;;;;5092613;28;20735;-77
2021/12/11 05:55:35;;;;;;;14.20;13.70;;;;;;;;;;5092545;28;20196;-78
2021/12/11 05:58:10;;;;;;;14.13;13.63;;;;;;;;;;5092546;28;20189;-77
2021/12/11 06:00:38;;;;;;;14.20;13.70;;;;;;;;;;5092511;28;20215;-78
2021/12/11 06:03:05;;;;;;;15.63;14.97;;;;;;;;;;5092688;28;20225;-77
2021/12/11 06:05:34;;;;;;;14.67;14.17;;;;;;;;;;5092385;28;20632;-78
2021/12/11 06:08:01;;;;;;;14.00;13.50;;;;;;;;;;5092700;28;20243;-79
2021/12/11 06:10:29;;;;;;;15.60;15.00;;;;;;;;;;5092585;28;20284;-79
2021/12/11 06:12:56;;;;;;;15.10;14.50;;;;;;;;;;5092333;28;20284;-78
2021/12/11 06:15:23;;;;;;;13.60;13.10;;;;;;;;;;5092439;28;20255;-78
2021/12/11 06:17:50;;;;;;;14.43;13.83;;;;;;;;;;5092530;28;20272;-78
2021/12/11 06:20:18;;;;;;;14.90;14.30;;;;;;;;;;5092533;28;20228;-77
2021/12/11 06:22:47;;;;;;;15.70;15.10;;;;;;;;;;5092408;28;20222;-78
2021/12/11 06:25:17;;;;;;;15.20;14.60;;;;;;;;;;5092385;28;20285;-78
2021/12/11 06:27:44;;;;;;;16.30;15.70;;;;;;;;;;5092421;28;20193;-78
2021/12/11 06:30:12;;;;;;;16.90;16.20;;;;;;;;;;5092084;28;20229;-77
2021/12/11 06:32:39;;;;;;;17.80;17.03;;;;;;;;;;5092118;28;20198;-77
2021/12/11 06:35:07;;;;;;;16.40;15.80;;;;;;;;;;5092666;28;20250;-79
2021/12/11 06:37:34;;;;;;;15.30;14.70;;;;;;;;;;5092119;28;20190;-77
2021/12/11 06:40:03;;;;;;;14.93;14.43;;;;;;;;;;5091966;28;20198;-76
2021/12/11 06:42:31;;;;;;;14.30;13.80;;;;;;;;;;5092170;28;20698;-79
2021/12/11 06:44:58;;;;;;;14.90;14.33;;;;;;;;;;5091992;28;20663;-77
2021/12/11 06:47:25;;;;;;;14.63;14.10;;;;;;;;;;5092235;28;20197;-77
2021/12/11 06:49:52;;;;;;;14.93;14.33;;;;;;;;;;5092270;28;20194;-76
2021/12/11 06:52:20;;;;;;;13.70;13.30;;;;;;;;;;5092068;28;20651;-78
2021/12/11 06:54:47;;;;;;;14.27;13.87;;;;;;;;;;5091869;28;20759;-75
2021/12/11 06:57:15;;;;;;;15.70;15.20;;;;;;;;;;5091807;28;20668;-75
2021/12/11 06:59:42;;;;;;;15.60;15.00;;;;;;;;;;5092143;28;20225;-76
2021/12/11 07:02:09;;;;;;;16.73;16.13;;;;;;;;;;5092060;28;20221;-74
2021/12/11 07:04:36;;;;;;;16.93;16.33;;;;;;;;;;5092045;28;20281;-74
2021/12/11 07:07:03;;;;;;;15.93;15.40;;;;;;;;;;5092182;28;20201;-75
2021/12/11 07:09:30;;;;;;;17.30;16.60;;;;;;;;;;5091698;28;20741;-74
2021/12/11 07:11:57;;;;;;;16.50;15.90;;;;;;;;;;5091731;28;20251;-74
2021/12/11 07:14:27;;;;;;;17.43;16.83;;;;;;;;;;5092258;28;20281;-75
2021/12/11 07:16:54;;;;;;;18.13;17.43;;;;;;;;;;5091692;28;20190;-75
2021/12/11 07:19:20;;;;;;;15.53;15.03;;;;;;;;;;5091629;28;20576;-74
2021/12/11 07:21:50;;;;;;;17.73;17.03;;;;;;;;;;5091562;28;20201;-74
2021/12/11 07:24:18;;;;;;;17.97;17.33;;;;;;;;;;5091988;28;20194;-74
2021/12/11 07:26:45;;;;;;;19.17;18.47;;;;;;;;;;5091632;28;20194;-76
2021/12/11 07:29:13;;;;;;;15.77;15.27;;;;;;;;;;5094909;28;20193;-74
2021/12/11 07:31:42;;;;;;;17.63;16.93;;;;;;;;;;5096165;28;20226;-74
2021/12/11 07:34:09;;;;;;;16.93;16.23;;;;;;;;;;5095464;28;20233;-74
2021/12/11 07:36:36;;;;;;;18.00;17.30;;;;;;;;;;5095186;28;20548;-73
2021/12/11 07:39:05;;;;;;;18.80;18.03;;;;;;;;;;5095487;28;20194;-74
2021/12/11 07:41:32;;;;;;;18.27;17.57;;;;;;;;;;5095676;28;20228;-74
2021/12/11 07:44:00;;;;;;;19.37;18.47;;;;;;;;;;5095246;28;20257;-74
2021/12/11 07:46:28;;;;;;;19.67;18.67;;;;;;;;;;5095184;28;20190;-74
2021/12/11 07:48:57;;;;;;;15.70;15.10;;;;;;;;;;5095293;28;20243;-73
2021/12/11 07:51:25;;;;;;;15.80;15.20;;;;;;;;;;5095172;28;20216;-75
2021/12/11 07:53:52;;;;;;;17.63;16.93;;;;;;;;;;5095166;28;20201;-74
2021/12/11 07:56:20;;;;;;;17.00;16.30;;;;;;;;;;5095378;28;20201;-74
2021/12/11 07:58:47;;;;;;;17.03;16.33;;;;;;;;;;5095938;28;20194;-74
2021/12/11 08:01:14;;;;;;;18.83;18.03;;;;;;;;;;5094744;28;20229;-73
2021/12/11 08:03:41;;;;;;;18.80;18.00;;;;;;;;;;5094838;28;20274;-73
2021/12/11 08:06:10;;;;;;;22.63;21.23;;;;;;;;;;5094658;28;20231;-73
2021/12/11 08:08:38;;;;;;;23.60;22.60;;;;;;;;;;5094915;28;20251;-73
2021/12/11 08:11:06;;;;;;;17.63;16.83;;;;;;;;;;5094894;28;20251;-74
2021/12/11 08:13:33;;;;;;;18.83;18.03;;;;;;;;;;5094485;28;20193;-73
2021/12/11 08:16:00;;;;;;;18.10;17.30;;;;;;;;;;5094440;28;20679;-75
2021/12/11 08:18:27;;;;;;;16.80;16.10;;;;;;;;;;5094384;28;20193;-75
2021/12/11 08:20:54;;;;;;;17.20;16.50;;;;;;;;;;5094644;28;20190;-73
2021/12/11 08:23:23;;;;;;;17.80;17.00;;;;;;;;;;5094514;28;20226;-75
2021/12/11 08:25:50;;;;;;;18.10;17.30;;;;;;;;;;5095060;28;20376;-74
2021/12/11 08:28:19;;;;;;;17.77;16.93;;;;;;;;;;5094273;28;20660;-72
2021/12/11 08:30:46;;;;;;;17.43;16.70;;;;;;;;;;5094141;28;20241;-74
2021/12/11 08:33:13;;;;;;;19.53;18.63;;;;;;;;;;5094414;28;20190;-74
2021/12/11 08:35:40;;;;;;;25.93;24.73;;;;;;;;;;5094074;28;20202;-74
2021/12/11 08:38:08;;;;;;;28.50;27.00;;;;;;;;;;5094188;28;20194;-73
2021/12/11 08:40:38;;;;;;;27.47;26.17;;;;;;;;;;5094290;28;20194;-74
2021/12/11 08:43:06;;;;;;;24.87;23.67;;;;;;;;;;5094099;28;20257;-74
2021/12/11 08:45:45;;;;;;;25.20;24.03;;;;;;;;;;5093915;28;20737;-74
2021/12/11 08:48:13;;;;;;;23.73;22.63;;;;;;;;;;5093809;28;20186;-73
2021/12/11 08:50:40;;;;;;;27.27;25.87;;;;;;;;;;5093807;28;20190;-73
2021/12/11 08:53:06;;;;;;;27.03;25.73;;;;;;;;;;5093708;28;20197;-73
2021/12/11 08:55:36;;;;;;;27.37;26.07;;;;;;;;;;5093687;28;20667;-75
2021/12/11 08:58:05;;;;;;;24.23;23.13;;;;;;;;;;5093914;28;20722;-73
2021/12/11 09:00:34;;;;;;;24.23;23.13;;;;;;;;;;5093566;28;20727;-74
2021/12/11 09:03:06;;;;;;;24.27;23.17;;;;;;;;;;5093891;28;20278;-73
2021/12/11 09:05:34;;;;;;;24.17;23.17;;;;;;;;;;5093813;28;20190;-73
2021/12/11 09:08:05;;;;;;;25.60;24.50;;;;;;;;;;5093496;28;20243;-74
2021/12/11 09:10:33;;;;;;;26.50;25.30;;;;;;;;;;5093762;28;20182;-73
2021/12/11 09:13:02;;;;;;;26.93;25.63;;;;;;;;;;5093670;28;20251;-74
2021/12/11 09:15:32;;;;;;;26.73;25.43;;;;;;;;;;5093540;28;20285;-74
2021/12/11 09:18:02;;;;;;;22.80;21.70;;;;;;;;;;5094185;28;20185;-73
2021/12/11 09:20:33;;;;;;;21.80;20.70;;;;;;;;;;5093490;28;20686;-74
2021/12/11 09:23:04;;;;;;;21.17;20.20;;;;;;;;;;5093207;28;20221;-76
2021/12/11 09:25:34;;;;;;;22.00;21.00;;;;;;;;;;5093468;28;20258;-74
2021/12/11 09:28:03;;;;;;;31.17;29.67;;;;;;;;;;5093330;28;20284;-73
2021/12/11 09:30:33;;;;;;;30.47;28.97;;;;;;;;;;5092801;28;20230;-74
2021/12/11 09:33:02;;;;;;;28.47;27.17;;;;;;;;;;5093274;28;20196;-75
2021/12/11 09:35:32;;;;;;;29.70;28.10;;;;;;;;;;5093276;28;20198;-75
2021/12/11 09:38:00;;;;;;;22.27;21.27;;;;;;;;;;5093436;28;20277;-75
2021/12/11 09:40:31;;;;;;;24.40;23.17;;;;;;;;;;5092881;28;20197;-75
2021/12/11 09:42:58;;;;;;;23.03;22.03;;;;;;;;;;5092727;28;20249;-75
2021/12/11 09:45:27;;;;;;;22.77;21.67;;;;;;;;;;5093066;28;20198;-75
2021/12/11 09:47:55;;;;;;;23.30;22.20;;;;;;;;;;5092725;28;20281;-74
2021/12/11 09:50:25;;;;;;;26.20;24.67;;;;;;;;;;5092486;28;20225;-73
2021/12/11 09:52:52;;;;;;;23.67;22.57;;;;;;;;;;5092822;28;20236;-74
2021/12/11 09:55:21;;;;;;;26.20;24.90;;;;;;;;;;5092788;28;20228;-73
2021/12/11 09:57:49;;;;;;;27.50;26.20;;;;;;;;;;5092867;28;20237;-74
2021/12/11 10:00:17;;;;;;;23.93;22.83;;;;;;;;;;5093328;28;20232;-75
2021/12/11 10:02:46;;;;;;;24.07;22.67;;;;;;;;;;5092712;28;20736;-74
2021/12/11 10:05:29;;;;;;;31.03;29.33;;;;;;;;;;5092429;28;20289;-73
2021/12/11 10:08:02;;;;;;;29.23;27.83;;;;;;;;;;5093018;28;20198;-73
2021/12/11 10:10:29;;;;;;;28.37;26.97;;;;;;;;;;5092717;28;20656;-74
2021/12/11 10:12:57;;;;;;;30.27;28.87;;;;;;;;;;5092309;28;20198;-74
2021/12/11 10:15:26;;;;;;;31.87;30.27;;;;;;;;;;5092590;28;20554;-74
2021/12/11 10:17:55;;;;;;;35.43;33.80;;;;;;;;;;5092263;28;20204;-74
2021/12/11 10:20:23;;;;;;;32.53;31.03;;;;;;;;;;5092223;28;20575;-74
2021/12/11 10:22:51;;;;;;;34.10;32.43;;;;;;;;;;5092387;28;20285;-73
2021/12/11 10:25:21;;;;;;;30.10;28.70;;;;;;;;;;5092492;28;20641;-73
2021/12/11 10:27:48;;;;;;;30.43;29.03;;;;;;;;;;5092662;28;20193;-74
2021/12/11 10:30:17;;;;;;;29.33;27.43;;;;;;;;;;5092136;28;20754;-74
2021/12/11 10:32:44;;;;;;;35.53;33.73;;;;;;;;;;5092275;28;20281;-74
2021/12/11 10:35:14;;;;;;;37.17;35.37;;;;;;;;;;5092347;28;20666;-73
2021/12/11 10:37:41;;;;;;;35.90;34.20;;;;;;;;;;5092086;28;20194;-75
2021/12/11 10:40:10;;;;;;;39.83;37.70;;;;;;;;;;5092285;28;20193;-74
2021/12/11 10:42:37;;;;;;;34.63;32.83;;;;;;;;;;5091993;28;20237;-74
2021/12/11 10:45:05;;;;;;;31.27;29.77;;;;;;;;;;5092126;28;20313;-74
2021/12/11 10:47:34;;;;;;;32.07;30.07;;;;;;;;;;5092784;28;20202;-73
2021/12/11 10:50:03;;;;;;;36.73;34.77;;;;;;;;;;5092485;28;20201;-74
2021/12/11 10:52:32;;;;;;;31.83;30.17;;;;;;;;;;5092214;28;20281;-74
2021/12/11 10:55:00;;;;;;;29.57;28.20;;;;;;;;;;5091911;28;20229;-74
2021/12/11 10:57:27;;;;;;;31.67;29.97;;;;;;;;;;5091826;28;20573;-73
2021/12/11 10:59:55;;;;;;;32.83;31.23;;;;;;;;;;5091857;28;20267;-74
2021/12/11 11:02:23;;;;;;;32.30;30.70;;;;;;;;;;5092833;28;20281;-74
2021/12/11 11:04:53;;;;;;;31.20;29.80;;;;;;;;;;5096031;28;20229;-73
2021/12/11 11:07:20;;;;;;;30.87;29.37;;;;;;;;;;5095755;28;20229;-74
2021/12/11 11:09:48;;;;;;;31.77;30.27;;;;;;;;;;5095748;28;20719;-74
2021/12/11 11:12:17;;;;;;;24.80;23.70;;;;;;;;;;5096066;28;20275;-74
2021/12/11 11:14:44;;;;;;;27.10;25.90;;;;;;;;;;5095622;28;20636;-74
2021/12/11 11:17:13;;;;;;;27.60;26.23;;;;;;;;;;5095899;28;20197;-74
2021/12/11 11:19:41;;;;;;;27.57;26.17;;;;;;;;;;5095508;28;20236;-73
2021/12/11 11:22:09;;;;;;;23.20;22.13;;;;;;;;;;5095823;28;20232;-73
2021/12/11 11:24:37;;;;;;;25.10;23.90;;;;;;;;;;5095703;28;20757;-73
2021/12/11 11:27:06;;;;;;;20.67;19.77;;;;;;;;;;5095687;28;20281;-74
2021/12/11 11:29:33;;;;;;;21.13;20.13;;;;;;;;;;5095479;28;20667;-73
2021/12/11 11:32:01;;;;;;;25.67;24.40;;;;;;;;;;5095373;28;20639;-74
2021/12/11 11:34:30;;;;;;;37.10;34.97;;;;;;;;;;5095239;28;20574;-74
2021/12/11 11:36:58;;;;;;;27.70;26.40;;;;;;;;;;5095517;28;20197;-73
2021/12/11 11:39:25;;;;;;;33.00;30.97;;;;;;;;;;5095170;28;20194;-74
2021/12/11 11:41:53;;;;;;;28.17;26.73;;;;;;;;;;5095124;28;20200;-74
2021/12/11 11:44:24;;;;;;;33.87;32.20;;;;;;;;;;5095299;28;20313;-74
2021/12/11 11:46:51;;;;;;;30.70;28.90;;;;;;;;;;5095972;28;20247;-74
2021/12/11 11:49:19;;;;;;;27.63;26.07;;;;;;;;;;5095017;28;20193;-73
2021/12/11 11:51:47;;;;;;;20.30;19.40;;;;;;;;;;5094972;28;20255;-74
2021/12/11 11:54:17;;;;;;;19.97;18.97;;;;;;;;;;5094819;28;20659;-74
2021/12/11 11:56:45;;;;;;;20.33;19.43;;;;;;;;;;5094838;28;20280;-74
2021/12/11 11:59:12;;;;;;;21.50;20.40;;;;;;;;;;5095066;28;20223;-74
2021/12/11 12:01:41;;;;;;;20.33;19.43;;;;;;;;;;5094841;28;20225;-74
2021/12/11 12:04:11;;;;;;;21.17;20.17;;;;;;;;;;5094663;28;20316;-75
2021/12/11 12:06:38;;;;;;;21.90;20.90;;;;;;;;;;5094934;28;20247;-73
2021/12/11 12:09:08;;;;;;;24.00;22.70;;;;;;;;;;5094612;28;20280;-73
2021/12/11 12:11:35;;;;;;;22.53;21.53;;;;;;;;;;5094509;28;20190;-74
2021/12/11 12:14:03;;;;;;;21.27;20.27;;;;;;;;;;5094086;28;20233;-74
2021/12/11 12:16:31;;;;;;;19.87;18.97;;;;;;;;;;5094477;28;20197;-74
2021/12/11 12:18:59;;;;;;;21.60;20.60;;;;;;;;;;5094759;28;20284;-74
2021/12/11 12:21:26;;;;;;;20.97;19.27;;;;;;;;;;5094406;28;20197;-74
2021/12/11 12:23:53;;;;;;;20.17;19.17;;;;;;;;;;5094501;28;20244;-73
2021/12/11 12:26:22;;;;;;;19.90;19.03;;;;;;;;;;5094607;28;20191;-73
2021/12/11 12:28:49;;;;;;;18.83;18.03;;;;;;;;;;5094188;28;20190;-75
2021/12/11 12:31:19;;;;;;;18.97;18.17;;;;;;;;;;5093985;28;20602;-73
2021/12/11 12:33:47;;;;;;;17.37;16.57;;;;;;;;;;5094683;28;20194;-74
2021/12/11 12:36:16;;;;;;;16.20;15.50;;;;;;;;;;5094453;28;20232;-74
2021/12/11 12:38:43;;;;;;;16.63;15.93;;;;;;;;;;5094051;28;20281;-75
2021/12/11 12:41:12;;;;;;;16.37;15.77;;;;;;;;;;5094324;28;20193;-75
2021/12/11 12:44:16;;;;;;;17.03;16.13;;;;;;;;;;5094171;28;20259;-73
2021/12/11 12:46:43;;;;;;;18.23;17.43;;;;;;;;;;5093680;28;20690;-74
2021/12/11 12:49:11;;;;;;;17.40;16.60;;;;;;;;;;5093808;28;20617;-75
2021/12/11 12:51:40;;;;;;;16.63;15.93;;;;;;;;;;5094072;28;20194;-74
2021/12/11 12:54:08;;;;;;;16.50;15.80;;;;;;;;;;5093741;28;20735;-75
2021/12/11 12:56:37;;;;;;;17.03;16.33;;;;;;;;;;5094002;28;20225;-75
2021/12/11 12:59:05;;;;;;;16.33;15.73;;;;;;;;;;5093938;28;20273;-75
2021/12/11 13:01:36;;;;;;;16.23;15.43;;;;;;;;;;5093536;28;20240;-75
2021/12/11 13:04:05;;;;;;;16.93;16.23;;;;;;;;;;5093486;28;20250;-74
2021/12/11 13:06:34;;;;;;;20.37;19.57;;;;;;;;;;5093770;28;20194;-75
2021/12/11 13:09:09;;;;;;;23.20;22.30;;;;;;;;;;5093852;28;20194;-74
2021/12/11 13:11:37;;;;;;;23.77;22.67;;;;;;;;;;5093388;28;20201;-74
2021/12/11 13:14:05;;;;;;;16.77;16.17;;;;;;;;;;5093590;28;20683;-73
2021/12/11 13:16:35;;;;;;;14.90;14.40;;;;;;;;;;5093566;28;20277;-74
2021/12/11 13:19:05;;;;;;;21.47;20.33;;;;;;;;;;5093630;28;20276;-74
2021/12/11 13:21:33;;;;;;;19.13;18.33;;;;;;;;;;5093545;28;20225;-74
2021/12/11 13:24:01;;;;;;;18.50;17.60;;;;;;;;;;5093127;28;20316;-74
2021/12/11 13:26:30;;;;;;;18.83;18.03;;;;;;;;;;5092644;28;20663;-75
2021/12/11 13:28:58;;;;;;;18.53;17.73;;;;;;;;;;5093036;28;20697;-74
2021/12/11 13:31:28;;;;;;;22.70;21.60;;;;;;;;;;5093129;28;20312;-74
2021/12/11 13:33:54;;;;;;;22.73;21.63;;;;;;;;;;5092983;28;20276;-74
2021/12/11 13:36:21;;;;;;;19.97;19.07;;;;;;;;;;5092950;28;20229;-74
2021/12/11 13:38:49;;;;;;;20.30;19.40;;;;;;;;;;5092895;28;20281;-73
2021/12/11 13:41:19;;;;;;;22.53;21.40;;;;;;;;;;5093220;28;20297;-74
2021/12/11 13:43:47;;;;;;;22.37;21.30;;;;;;;;;;5092826;28;20220;-74
2021/12/11 13:46:14;;;;;;;21.60;20.70;;;;;;;;;;5093040;28;20263;-73
2021/12/11 13:48:41;;;;;;;20.50;19.57;;;;;;;;;;5092985;28;20243;-73
2021/12/11 13:51:09;;;;;;;21.17;20.00;;;;;;;;;;5092929;28;20271;-74
2021/12/11 13:53:37;;;;;;;22.83;21.73;;;;;;;;;;5092913;28;20198;-74
2021/12/11 13:56:06;;;;;;;22.13;21.13;;;;;;;;;;5092567;28;20205;-74
2021/12/11 13:58:33;;;;;;;21.73;20.73;;;;;;;;;;5092892;28;20655;-73
2021/12/11 14:01:07;;;;;;;21.50;20.50;;;;;;;;;;5092472;28;20277;-74
2021/12/11 14:03:33;;;;;;;24.73;22.67;;;;;;;;;;5093163;28;20186;-74
2021/12/11 14:06:03;;;;;;;23.53;22.43;;;;;;;;;;5092682;28;20691;-74
2021/12/11 14:08:32;;;;;;;24.53;23.43;;;;;;;;;;5092433;28;20285;-74
2021/12/11 14:10:59;;;;;;;24.73;23.53;;;;;;;;;;5092671;28;20193;-74
2021/12/11 14:13:26;;;;;;;23.00;22.00;;;;;;;;;;5092312;28;20237;-74
2021/12/11 14:15:54;;;;;;;23.33;22.33;;;;;;;;;;5092900;28;20306;-74
2021/12/11 14:18:23;;;;;;;23.00;22.00;;;;;;;;;;5092584;28;20277;-74
2021/12/11 14:20:50;;;;;;;23.07;22.07;;;;;;;;;;5092177;28;20281;-74
2021/12/11 14:23:18;;;;;;;24.97;23.83;;;;;;;;;;5092512;28;20225;-74
2021/12/11 14:25:45;;;;;;;23.23;22.23;;;;;;;;;;5092354;28;20715;-74
2021/12/11 14:28:13;;;;;;;25.67;24.37;;;;;;;;;;5092681;28;20280;-73
2021/12/11 14:30:42;;;;;;;23.87;22.67;;;;;;;;;;5092637;28;20257;-74